This is the latest recevied weather packets stored in our database for station/object KB1JDX. If no packets are shown the sender has not sent any weather packets the latest 10 day(s).
| Time | Temp. | Humidity | Pressure | Rain* | Wind** | Luminosity | Snow |
|---|---|---|---|---|---|---|---|
| 1777958435 | 9.44° C | 40% | 1011.1 hPa | 0 mm | 0 m/s | - | - |
| 1777958366 | 9.44° C | 40% | 1011.2 hPa | 0 mm | 0 m/s | - | - |
| 1777956034 | 10.56° C | 45% | 1011.4 hPa | 0 mm | 0 m/s | - | - |
| 1777954766 | 10.56° C | 48% | 1011.4 hPa | 0 mm | 0 m/s | - | - |
| 1777953634 | 11.11° C | 50% | 1011.4 hPa | 0 mm | 0 m/s | - | - |
| 1777952434 | 11.11° C | 52% | 1011.3 hPa | 0 mm | 0 m/s | - | - |
| 1777951235 | 11.11° C | 56% | 1011.3 hPa | 0 mm | 0 m/s | - | - |
| 1777951166 | 11.11° C | 56% | 1011.3 hPa | 0 mm | 0 m/s | - | - |
| 1777948834 | 11.67° C | 60% | 1011.4 hPa | 0 mm | 2.24 m/s, 190° | - | - |
| 1777947634 | 12.22° C | 62% | 1011.5 hPa | 0 mm | 0 m/s | - | - |
| 1777947566 | 12.22° C | 62% | 1011.5 hPa | 0 mm | 0 m/s | - | - |
| 1777946434 | 12.22° C | 63% | 1011.5 hPa | 0 mm | 0 m/s | - | - |
| 1777945235 | 12.22° C | 65% | 1011.5 hPa | 0 mm | 0 m/s | - | - |
| 1777944034 | 12.78° C | 65% | 1011.3 hPa | 0 mm | 0 m/s | - | - |
| 1777943966 | 12.78° C | 65% | 1011.2 hPa | 0 mm | 0 m/s | - | - |
| 1777942835 | 13.33° C | 66% | 1010.8 hPa | 0 mm | 1.79 m/s, 177° | - | - |
| 1777941634 | 13.33° C | 65% | 1010.4 hPa | 0 mm | 0 m/s | - | - |
| 1777940435 | 14.44° C | 62% | 1010 hPa | 0 mm | 0 m/s | - | - |
| 1777940366 | 14.44° C | 62% | 1010.1 hPa | 0 mm | 0 m/s | - | - |
| 1777939234 | 15° C | 60% | 1009.7 hPa | 0 mm | 0 m/s | - | - |
| 1777938034 | 15.56° C | 57% | 1009.4 hPa | 0 mm | 0 m/s | - | - |
| 1777936835 | 16.11° C | 54% | 1009.2 hPa | 0 mm | 0 m/s | - | - |
| 1777936766 | 16.11° C | 54% | 1009.2 hPa | 0 mm | 0 m/s | - | - |
| 1777935634 | 17.22° C | 51% | 1009 hPa | 0 mm | 1.79 m/s, 165° | - | - |
| 1777934435 | 17.78° C | 48% | 1008.9 hPa | 0 mm | 0 m/s | - | - |
* Rain latest hour (hover to see other rain measurements)
** Current wind speed in m/s (hover to see current wind gust speed)